Time;durP1;ratioP1;P1;durP2;ratioP2;P2;SDS_P1;SDS_P2;PMS_P1;PMS_P2;Temp;Humidity;BMP_temperature;BMP_pressure;BME280_temperature;BME280_humidity;BME280_pressure;Samples;Min_cycle;Max_cycle;Signal;HPM_P1;HPM_P2
2022/03/16 00:00:00;;;;;;;;;;;4.30;99.90;;;;;;4195550;28;20479;-49
2022/03/16 00:02:02;;;;;;;;;;;4.20;99.90;;;;;;4193968;28;20377;-49
2022/03/16 00:04:04;;;;;;;;;;;4.20;99.90;;;;;;4186451;28;19924;-50
2022/03/16 00:06:06;;;;;;;;;;;4.00;99.90;;;;;;4194605;28;20372;-47
2022/03/16 00:08:08;;;;;;;;;;;3.80;99.90;;;;;;4195335;28;19973;-50
2022/03/16 00:10:11;;;;;;;;;;;3.70;99.90;;;;;;4195426;28;19929;-47
2022/03/16 00:12:13;;;;;;;;;;;3.60;99.90;;;;;;4195193;28;19986;-50
2022/03/16 00:14:16;;;;;;;;;;;3.60;99.90;;;;;;4195268;28;19932;-49
2022/03/16 00:16:18;;;;;;;;;;;3.60;99.90;;;;;;4194903;28;20422;-49
2022/03/16 00:18:19;;;;;;;;;;;3.70;99.90;;;;;;4194900;28;20377;-50
2022/03/16 00:20:21;;;;;;;;;;;3.70;99.90;;;;;;4194986;28;20430;-51
2022/03/16 00:22:23;;;;;;;;;;;3.80;99.90;;;;;;4195078;28;20424;-50
2022/03/16 00:24:26;;;;;;;;;;;3.80;99.90;;;;;;4195593;28;19933;-49
2022/03/16 00:26:28;;;;;;;;;;;3.70;99.90;;;;;;4195001;28;20023;-51
2022/03/16 00:28:30;;;;;;;;;;;3.80;99.90;;;;;;4194970;28;19963;-48
2022/03/16 00:30:32;;;;;;;;;;;3.90;99.90;;;;;;4194867;28;19932;-51
2022/03/16 00:32:33;;;;;;;;;;;4.00;99.90;;;;;;4194789;28;20412;-48
2022/03/16 00:34:35;;;;;;;;;;;4.10;99.90;;;;;;4195398;28;20182;-48
2022/03/16 00:36:37;;;;;;;;;;;4.00;99.90;;;;;;4194575;28;19929;-48
2022/03/16 00:38:39;;;;;;;;;;;3.90;99.90;;;;;;4195408;28;19981;-50
2022/03/16 00:40:41;;;;;;;;;;;4.00;99.90;;;;;;4194966;28;20316;-47
2022/03/16 00:42:43;;;;;;;;;;;4.10;99.90;;;;;;4195006;28;19925;-50
2022/03/16 00:44:45;;;;;;;;;;;4.10;99.90;;;;;;4194873;28;19982;-50
2022/03/16 00:46:47;;;;;;;;;;;4.20;99.90;;;;;;4194563;28;20384;-50
2022/03/16 00:48:49;;;;;;;;;;;4.30;99.90;;;;;;4194852;28;20203;-50
2022/03/16 00:50:50;;;;;;;;;;;4.20;99.90;;;;;;4194341;28;20363;-49
2022/03/16 00:52:53;;;;;;;;;;;4.00;99.90;;;;;;4194862;28;19931;-49
2022/03/16 00:54:55;;;;;;;;;;;4.00;99.90;;;;;;4194659;28;19936;-49
2022/03/16 00:56:57;;;;;;;;;;;4.00;99.90;;;;;;4194549;28;20156;-51
2022/03/16 00:58:59;;;;;;;;;;;4.00;99.90;;;;;;4194557;28;19929;-48
2022/03/16 01:01:03;;;;;;;;;;;3.90;99.90;;;;;;4193814;28;19970;-50
2022/03/16 01:03:05;;;;;;;;;;;4.00;99.90;;;;;;4195034;28;19928;-48
2022/03/16 01:05:08;;;;;;;;;;;3.80;99.90;;;;;;4194928;28;19925;-47
2022/03/16 01:07:09;;;;;;;;;;;3.80;99.90;;;;;;4194627;28;19964;-48
2022/03/16 01:09:12;;;;;;;;;;;3.90;99.90;;;;;;4194921;28;20346;-48
2022/03/16 01:11:14;;;;;;;;;;;3.80;99.90;;;;;;4194374;28;19928;-51
2022/03/16 01:13:16;;;;;;;;;;;3.90;99.90;;;;;;4195234;28;19928;-51
2022/03/16 01:15:23;;;;;;;;;;;4.00;99.90;;;;;;4194524;28;19924;-51
2022/03/16 01:17:24;;;;;;;;;;;4.00;99.90;;;;;;4194224;28;19947;-50
2022/03/16 01:19:28;;;;;;;;;;;3.90;99.90;;;;;;4194662;28;19925;-50
2022/03/16 01:21:30;;;;;;;;;;;3.90;99.90;;;;;;4194540;28;19967;-47
2022/03/16 01:23:33;;;;;;;;;;;3.90;99.90;;;;;;4194765;28;19974;-49
2022/03/16 01:25:35;;;;;;;;;;;3.90;99.90;;;;;;4194674;28;19928;-48
2022/03/16 01:27:37;;;;;;;;;;;3.90;99.90;;;;;;4193433;28;19963;-51
2022/03/16 01:29:39;;;;;;;;;;;3.90;99.90;;;;;;4193270;28;20366;-50
2022/03/16 01:31:40;;;;;;;;;;;3.80;99.90;;;;;;4194535;28;19960;-48
2022/03/16 01:33:42;;;;;;;;;;;3.80;99.90;;;;;;4194695;28;19924;-49
2022/03/16 01:35:44;;;;;;;;;;;3.90;99.90;;;;;;4194318;28;19958;-48
2022/03/16 01:37:46;;;;;;;;;;;3.80;99.90;;;;;;4194906;28;19971;-48
2022/03/16 01:39:48;;;;;;;;;;;3.80;99.90;;;;;;4194292;28;19924;-48
2022/03/16 01:41:50;;;;;;;;;;;4.00;99.90;;;;;;4194338;28;19932;-50
2022/03/16 01:43:52;;;;;;;;;;;4.00;99.90;;;;;;4194334;28;19928;-47
2022/03/16 01:45:54;;;;;;;;;;;4.10;99.90;;;;;;4194299;28;19963;-48
2022/03/16 01:47:56;;;;;;;;;;;4.00;99.90;;;;;;4194382;28;19932;-48
2022/03/16 01:49:58;;;;;;;;;;;3.80;99.90;;;;;;4194225;28;20438;-49
2022/03/16 01:52:00;;;;;;;;;;;3.70;99.90;;;;;;4194570;28;19955;-47
2022/03/16 01:54:04;;;;;;;;;;;3.70;99.90;;;;;;4194378;28;19978;-51
2022/03/16 01:56:07;;;;;;;;;;;3.60;99.90;;;;;;4194215;28;20274;-50
2022/03/16 01:58:10;;;;;;;;;;;3.60;99.90;;;;;;4193112;28;20436;-50
2022/03/16 02:00:12;;;;;;;;;;;3.50;99.90;;;;;;4194421;28;19997;-49
2022/03/16 02:02:14;;;;;;;;;;;3.70;99.90;;;;;;4195689;28;19928;-51
2022/03/16 02:04:16;;;;;;;;;;;3.60;99.90;;;;;;4190182;28;20023;-49
2022/03/16 02:06:18;;;;;;;;;;;3.70;99.90;;;;;;4196922;28;19924;-51
2022/03/16 02:08:20;;;;;;;;;;;3.70;99.90;;;;;;4197589;28;19967;-50
2022/03/16 02:10:22;;;;;;;;;;;3.70;99.90;;;;;;4197445;28;19936;-49
2022/03/16 02:12:24;;;;;;;;;;;3.90;99.90;;;;;;4197095;28;19959;-48
2022/03/16 02:14:26;;;;;;;;;;;4.00;99.90;;;;;;4196913;28;20278;-48
2022/03/16 02:16:32;;;;;;;;;;;4.10;99.90;;;;;;4197224;28;19931;-47
2022/03/16 02:18:34;;;;;;;;;;;4.10;99.90;;;;;;4196557;28;19964;-49
2022/03/16 02:20:36;;;;;;;;;;;4.00;99.90;;;;;;4196858;28;20419;-48
2022/03/16 02:22:50;;;;;;;;;;;3.90;99.90;;;;;;4197175;28;20011;-48
2022/03/16 02:24:55;;;;;;;;;;;3.90;99.90;;;;;;4198374;28;19931;-49
2022/03/16 02:26:57;;;;;;;;;;;3.90;99.90;;;;;;4196866;28;19964;-50
2022/03/16 02:28:59;;;;;;;;;;;3.70;99.90;;;;;;4180700;28;19979;-48
2022/03/16 02:31:01;;;;;;;;;;;3.70;99.90;;;;;;4195930;28;19966;-48
2022/03/16 02:33:03;;;;;;;;;;;3.80;99.90;;;;;;4195982;28;19978;-48
2022/03/16 02:35:05;;;;;;;;;;;3.90;99.90;;;;;;4196763;28;19924;-49
2022/03/16 02:37:07;;;;;;;;;;;3.90;99.90;;;;;;4196584;28;19983;-48
2022/03/16 02:39:08;;;;;;;;;;;3.90;99.90;;;;;;4196962;28;19924;-48
2022/03/16 02:41:10;;;;;;;;;;;4.00;99.90;;;;;;4196552;28;19924;-51
2022/03/16 02:43:12;;;;;;;;;;;4.00;99.90;;;;;;4196693;28;19924;-49
2022/03/16 02:45:14;;;;;;;;;;;4.10;99.90;;;;;;4196558;28;19982;-48
2022/03/16 02:47:16;;;;;;;;;;;4.00;99.90;;;;;;4196532;28;19933;-47
2022/03/16 02:49:18;;;;;;;;;;;4.00;99.90;;;;;;4196262;28;20019;-48
2022/03/16 02:51:20;;;;;;;;;;;3.90;99.90;;;;;;4196534;28;19987;-49
2022/03/16 02:53:22;;;;;;;;;;;3.90;99.90;;;;;;4196681;28;19925;-47
2022/03/16 02:55:26;;;;;;;;;;;3.90;99.90;;;;;;4196627;28;19928;-47
2022/03/16 02:57:28;;;;;;;;;;;3.90;99.90;;;;;;4186592;28;19929;-46
2022/03/16 02:59:30;;;;;;;;;;;3.90;99.90;;;;;;4196194;28;19951;-48
2022/03/16 03:01:32;;;;;;;;;;;3.90;99.90;;;;;;4196404;28;19928;-51
2022/03/16 03:03:34;;;;;;;;;;;3.90;99.90;;;;;;4196438;28;19928;-48
2022/03/16 03:05:36;;;;;;;;;;;3.90;99.90;;;;;;4196468;28;20035;-48
2022/03/16 03:07:38;;;;;;;;;;;3.70;99.90;;;;;;4196524;28;19924;-47
2022/03/16 03:09:40;;;;;;;;;;;3.70;99.90;;;;;;4196645;28;19971;-50
2022/03/16 03:11:42;;;;;;;;;;;3.70;99.90;;;;;;4196141;28;19931;-48
2022/03/16 03:13:44;;;;;;;;;;;3.60;99.90;;;;;;4196047;28;20037;-48
2022/03/16 03:15:46;;;;;;;;;;;3.60;99.90;;;;;;4196291;28;19924;-48
2022/03/16 03:17:48;;;;;;;;;;;3.60;99.90;;;;;;4195672;28;19929;-48
2022/03/16 03:19:50;;;;;;;;;;;3.70;99.90;;;;;;4196085;28;19931;-49
2022/03/16 03:21:51;;;;;;;;;;;3.70;99.90;;;;;;4196139;28;19978;-48
2022/03/16 03:23:53;;;;;;;;;;;3.70;99.90;;;;;;4195975;28;19929;-50
2022/03/16 03:25:55;;;;;;;;;;;3.60;99.90;;;;;;4196062;28;19932;-49
2022/03/16 03:27:57;;;;;;;;;;;3.60;99.90;;;;;;4194616;28;19982;-49
2022/03/16 03:29:59;;;;;;;;;;;3.50;99.90;;;;;;4196231;28;19925;-49
2022/03/16 03:32:01;;;;;;;;;;;3.50;99.90;;;;;;4196053;28;20285;-50
2022/03/16 03:34:04;;;;;;;;;;;3.40;99.90;;;;;;4195588;28;19976;-51
2022/03/16 03:36:05;;;;;;;;;;;3.40;99.90;;;;;;4196095;28;20451;-47
2022/03/16 03:38:07;;;;;;;;;;;3.40;99.90;;;;;;4195661;28;19968;-48
2022/03/16 03:40:10;;;;;;;;;;;3.30;99.90;;;;;;4195952;28;20308;-49
2022/03/16 03:42:11;;;;;;;;;;;3.30;99.90;;;;;;4196191;28;19968;-47
2022/03/16 03:44:13;;;;;;;;;;;3.40;99.90;;;;;;4194365;28;19928;-48
2022/03/16 03:46:15;;;;;;;;;;;3.40;99.90;;;;;;4195827;28;19928;-48
2022/03/16 03:48:17;;;;;;;;;;;3.50;99.90;;;;;;4195263;28;20242;-48
2022/03/16 03:50:19;;;;;;;;;;;3.70;99.90;;;;;;4195483;28;20745;-46
2022/03/16 03:52:21;;;;;;;;;;;3.70;99.90;;;;;;4196022;28;19964;-47
2022/03/16 03:54:23;;;;;;;;;;;3.70;99.90;;;;;;4193858;28;19964;-49
2022/03/16 03:56:25;;;;;;;;;;;3.80;99.90;;;;;;4196076;28;19924;-51
2022/03/16 03:58:27;;;;;;;;;;;3.90;99.90;;;;;;4195486;28;20023;-48
2022/03/16 04:00:29;;;;;;;;;;;3.90;99.90;;;;;;4195328;28;19932;-51
2022/03/16 04:02:31;;;;;;;;;;;3.90;99.90;;;;;;4195562;28;19931;-50
2022/03/16 04:04:33;;;;;;;;;;;4.00;99.90;;;;;;4195166;28;19929;-48
2022/03/16 04:06:35;;;;;;;;;;;3.90;99.90;;;;;;4195511;28;19925;-48
2022/03/16 04:08:37;;;;;;;;;;;3.90;99.90;;;;;;4195285;28;19928;-48
2022/03/16 04:10:40;;;;;;;;;;;4.00;99.90;;;;;;4195142;28;19935;-48
2022/03/16 04:12:42;;;;;;;;;;;4.10;99.90;;;;;;4195472;28;20023;-47
2022/03/16 04:14:43;;;;;;;;;;;4.10;99.90;;;;;;4195465;28;19928;-51
2022/03/16 04:16:45;;;;;;;;;;;4.00;99.90;;;;;;4195341;28;19963;-50
2022/03/16 04:18:47;;;;;;;;;;;3.70;99.90;;;;;;4194437;28;20023;-50
2022/03/16 04:20:49;;;;;;;;;;;3.70;99.90;;;;;;4195372;28;20254;-50
2022/03/16 04:22:55;;;;;;;;;;;3.70;99.90;;;;;;4195075;28;20383;-50
2022/03/16 04:25:06;;;;;;;;;;;3.70;99.90;;;;;;4194510;28;20388;-48
2022/03/16 04:27:08;;;;;;;;;;;3.60;99.90;;;;;;4195392;28;19928;-49
2022/03/16 04:29:10;;;;;;;;;;;3.60;99.90;;;;;;4194818;28;20440;-48
2022/03/16 04:31:12;;;;;;;;;;;3.60;99.90;;;;;;4194895;28;19928;-49
2022/03/16 04:33:14;;;;;;;;;;;3.60;99.90;;;;;;4195261;28;20341;-47
2022/03/16 04:35:16;;;;;;;;;;;3.70;99.90;;;;;;4193812;28;19959;-49
2022/03/16 04:37:18;;;;;;;;;;;3.90;99.90;;;;;;4194430;28;19928;-50
2022/03/16 04:39:20;;;;;;;;;;;4.00;99.90;;;;;;4194001;28;19939;-47
2022/03/16 04:41:22;;;;;;;;;;;4.00;99.90;;;;;;4193988;28;19936;-49
2022/03/16 04:43:23;;;;;;;;;;;3.90;99.90;;;;;;4193555;28;19925;-48
2022/03/16 04:45:25;;;;;;;;;;;3.90;99.90;;;;;;4193721;28;19974;-49
2022/03/16 04:47:27;;;;;;;;;;;3.80;99.90;;;;;;4194328;28;19929;-50
2022/03/16 04:49:29;;;;;;;;;;;3.80;99.90;;;;;;4194596;28;19932;-48
2022/03/16 04:51:31;;;;;;;;;;;3.80;99.90;;;;;;4192982;28;19931;-48
2022/03/16 04:53:33;;;;;;;;;;;3.80;99.90;;;;;;4194619;28;19955;-48
2022/03/16 04:55:35;;;;;;;;;;;3.90;99.90;;;;;;4195182;28;19925;-48
2022/03/16 04:57:37;;;;;;;;;;;3.90;99.90;;;;;;4194642;28;19968;-48
2022/03/16 04:59:39;;;;;;;;;;;3.90;99.90;;;;;;4195086;28;19947;-51
2022/03/16 05:01:41;;;;;;;;;;;3.90;99.90;;;;;;4194081;28;19928;-48
2022/03/16 05:03:45;;;;;;;;;;;3.90;99.90;;;;;;4194527;28;20116;-48
2022/03/16 05:05:47;;;;;;;;;;;4.00;99.90;;;;;;4193728;28;19925;-52
2022/03/16 05:07:49;;;;;;;;;;;4.10;99.90;;;;;;4194567;28;19978;-49
2022/03/16 05:09:50;;;;;;;;;;;4.20;99.90;;;;;;4194757;28;20476;-49
2022/03/16 05:11:52;;;;;;;;;;;4.20;99.90;;;;;;4194715;28;19974;-51
2022/03/16 05:13:56;;;;;;;;;;;4.10;99.90;;;;;;4194775;28;20392;-48
2022/03/16 05:15:58;;;;;;;;;;;4.10;99.90;;;;;;4194844;28;20470;-49
2022/03/16 05:18:00;;;;;;;;;;;4.10;99.90;;;;;;4194350;28;19996;-49
2022/03/16 05:20:02;;;;;;;;;;;4.10;99.90;;;;;;4194591;28;20023;-48
2022/03/16 05:22:04;;;;;;;;;;;4.00;99.90;;;;;;4194856;28;19932;-49
2022/03/16 05:24:06;;;;;;;;;;;4.00;99.90;;;;;;4194490;28;20377;-50
2022/03/16 05:26:08;;;;;;;;;;;4.10;99.90;;;;;;4194685;28;20304;-49
2022/03/16 05:28:10;;;;;;;;;;;4.10;99.90;;;;;;4194864;28;19929;-48
2022/03/16 05:30:13;;;;;;;;;;;4.10;99.90;;;;;;4194435;28;19982;-49
2022/03/16 05:32:15;;;;;;;;;;;4.10;99.90;;;;;;4194534;28;19985;-50
2022/03/16 05:34:17;;;;;;;;;;;4.10;99.90;;;;;;4194327;28;20321;-48
2022/03/16 05:36:19;;;;;;;;;;;4.00;99.90;;;;;;4194817;28;19925;-48
2022/03/16 05:38:21;;;;;;;;;;;4.00;99.90;;;;;;4197276;28;19982;-47
2022/03/16 05:40:23;;;;;;;;;;;4.00;99.90;;;;;;4195935;28;19950;-47
2022/03/16 05:42:24;;;;;;;;;;;4.00;99.90;;;;;;4190261;28;19978;-50
2022/03/16 05:44:26;;;;;;;;;;;4.10;99.90;;;;;;4197671;28;19928;-48
2022/03/16 05:46:28;;;;;;;;;;;4.20;99.90;;;;;;4197456;28;19978;-50
2022/03/16 05:48:30;;;;;;;;;;;4.30;99.90;;;;;;4197289;28;19932;-51
2022/03/16 05:50:32;;;;;;;;;;;4.40;99.90;;;;;;4197488;28;19924;-50
2022/03/16 05:52:34;;;;;;;;;;;4.30;99.90;;;;;;4197289;28;20020;-48
2022/03/16 05:54:36;;;;;;;;;;;4.30;99.90;;;;;;4196228;28;20396;-49
2022/03/16 05:56:38;;;;;;;;;;;4.20;99.90;;;;;;4197497;28;20405;-50
2022/03/16 05:58:39;;;;;;;;;;;4.20;99.90;;;;;;4197565;28;20140;-49
2022/03/16 06:00:42;;;;;;;;;;;4.20;99.90;;;;;;4197008;28;19970;-49
2022/03/16 06:02:44;;;;;;;;;;;4.30;99.90;;;;;;4186683;28;19980;-51
2022/03/16 06:04:46;;;;;;;;;;;4.30;99.90;;;;;;4194311;28;19977;-50
2022/03/16 06:06:48;;;;;;;;;;;4.20;99.90;;;;;;4197424;28;20036;-50
2022/03/16 06:08:50;;;;;;;;;;;4.20;99.90;;;;;;4197518;28;19924;-49
2022/03/16 06:10:52;;;;;;;;;;;4.20;99.90;;;;;;4197031;28;19928;-50
2022/03/16 06:12:58;;;;;;;;;;;4.20;99.90;;;;;;4197131;28;19936;-50
2022/03/16 06:15:00;;;;;;;;;;;4.30;99.90;;;;;;4197311;28;19924;-50
2022/03/16 06:17:02;;;;;;;;;;;4.30;99.90;;;;;;4196910;28;20375;-47
2022/03/16 06:19:04;;;;;;;;;;;4.30;99.90;;;;;;4196335;28;20023;-47
2022/03/16 06:21:06;;;;;;;;;;;4.50;99.90;;;;;;4196879;28;20074;-49
2022/03/16 06:23:08;;;;;;;;;;;4.50;99.90;;;;;;4196911;28;19928;-46
2022/03/16 06:25:14;;;;;;;;;;;4.60;99.90;;;;;;4196440;28;19951;-49
2022/03/16 06:27:16;;;;;;;;;;;4.70;99.90;;;;;;4195675;28;20023;-49
2022/03/16 06:29:18;;;;;;;;;;;4.80;99.90;;;;;;4197169;28;19925;-50
2022/03/16 06:31:20;;;;;;;;;;;4.80;99.90;;;;;;4196961;28;20520;-49
2022/03/16 06:33:22;;;;;;;;;;;4.90;99.90;;;;;;4197153;28;20215;-50
2022/03/16 06:35:23;;;;;;;;;;;5.10;99.90;;;;;;4194901;28;20433;-49
2022/03/16 06:37:25;;;;;;;;;;;5.20;99.90;;;;;;4195625;28;19932;-48
2022/03/16 06:39:27;;;;;;;;;;;5.30;99.90;;;;;;4195012;28;20056;-49
2022/03/16 06:41:29;;;;;;;;;;;5.30;99.90;;;;;;4196627;28;19933;-47
2022/03/16 06:43:31;;;;;;;;;;;5.30;99.90;;;;;;4196803;28;19928;-47
2022/03/16 06:45:33;;;;;;;;;;;5.20;99.90;;;;;;4196634;28;20326;-51
2022/03/16 06:47:38;;;;;;;;;;;5.20;99.90;;;;;;4195925;28;19944;-48
2022/03/16 06:49:40;;;;;;;;;;;5.20;99.90;;;;;;4196813;28;20006;-50
2022/03/16 06:51:42;;;;;;;;;;;5.20;99.90;;;;;;4196517;28;19994;-49
2022/03/16 06:53:44;;;;;;;;;;;5.30;99.90;;;;;;4195200;28;20480;-49
2022/03/16 06:55:46;;;;;;;;;;;5.40;99.90;;;;;;4195399;28;19928;-49
2022/03/16 06:57:48;;;;;;;;;;;5.60;99.90;;;;;;4196365;28;19929;-49
2022/03/16 06:59:50;;;;;;;;;;;5.70;99.90;;;;;;4195174;28;19960;-46
2022/03/16 07:01:52;;;;;;;;;;;5.80;99.90;;;;;;4196506;28;19924;-48
2022/03/16 07:03:54;;;;;;;;;;;6.00;99.90;;;;;;4196361;28;20350;-47
2022/03/16 07:05:56;;;;;;;;;;;6.00;99.90;;;;;;4196379;28;19924;-50
2022/03/16 07:07:59;;;;;;;;;;;5.90;99.90;;;;;;4196336;28;19928;-49
2022/03/16 07:10:00;;;;;;;;;;;5.90;99.90;;;;;;4196278;28;19925;-48
2022/03/16 07:12:02;;;;;;;;;;;5.90;99.90;;;;;;4187689;28;19929;-49
2022/03/16 07:16:25;;;;;;;;;;;5.90;99.90;;;;;;4195986;28;19928;-51
2022/03/16 07:18:27;;;;;;;;;;;5.90;99.90;;;;;;4195713;28;19928;-48
2022/03/16 07:20:29;;;;;;;;;;;5.90;99.90;;;;;;4195966;28;19935;-47
2022/03/16 07:22:31;;;;;;;;;;;6.00;99.90;;;;;;4194716;28;20064;-48
2022/03/16 07:24:53;;;;;;;;;;;6.20;99.90;;;;;;4200554;28;20384;-46
2022/03/16 07:26:55;;;;;;;;;;;6.40;99.90;;;;;;4195872;28;19925;-46
2022/03/16 07:28:57;;;;;;;;;;;6.50;99.90;;;;;;4196008;28;20420;-48
2022/03/16 07:30:59;;;;;;;;;;;6.60;99.90;;;;;;4195775;28;19935;-47
2022/03/16 07:33:02;;;;;;;;;;;6.70;99.90;;;;;;4196028;28;19931;-51
2022/03/16 07:35:04;;;;;;;;;;;6.80;99.90;;;;;;4196239;28;19929;-49
2022/03/16 07:37:05;;;;;;;;;;;7.00;99.90;;;;;;4195670;28;19952;-50
2022/03/16 07:39:07;;;;;;;;;;;7.10;99.90;;;;;;4195792;28;20269;-47
2022/03/16 07:41:11;;;;;;;;;;;7.10;99.90;;;;;;4195865;28;19924;-46
2022/03/16 07:43:14;;;;;;;;;;;7.20;99.90;;;;;;4195637;28;19928;-48
2022/03/16 07:45:18;;;;;;;;;;;7.10;99.90;;;;;;4195606;28;19978;-47
2022/03/16 07:47:20;;;;;;;;;;;7.10;99.90;;;;;;4194093;28;19971;-46
2022/03/16 07:49:27;;;;;;;;;;;7.10;99.90;;;;;;4195717;28;19929;-47
2022/03/16 07:51:29;;;;;;;;;;;7.10;99.90;;;;;;4195230;28;19935;-48
2022/03/16 07:53:31;;;;;;;;;;;7.10;99.90;;;;;;4195785;28;19968;-47
2022/03/16 07:55:35;;;;;;;;;;;7.20;99.90;;;;;;4195086;28;20467;-46
2022/03/16 07:57:37;;;;;;;;;;;7.30;99.90;;;;;;4195389;28;19928;-46
2022/03/16 07:59:39;;;;;;;;;;;7.40;99.90;;;;;;4195007;28;19974;-46
2022/03/16 08:01:41;;;;;;;;;;;7.50;99.90;;;;;;4195216;28;20391;-50
2022/03/16 08:03:43;;;;;;;;;;;7.60;99.90;;;;;;4195386;28;19928;-47
2022/03/16 08:05:47;;;;;;;;;;;7.70;99.90;;;;;;4195514;28;20015;-46
2022/03/16 08:07:50;;;;;;;;;;;7.80;99.90;;;;;;4195003;28;19929;-48
2022/03/16 08:09:51;;;;;;;;;;;7.90;99.90;;;;;;4194338;28;19924;-48
2022/03/16 08:11:53;;;;;;;;;;;8.00;99.90;;;;;;4195118;28;19947;-48
2022/03/16 08:13:55;;;;;;;;;;;8.00;99.90;;;;;;4195405;28;19948;-49
2022/03/16 08:15:57;;;;;;;;;;;8.20;99.90;;;;;;4195149;28;19928;-48
2022/03/16 08:17:59;;;;;;;;;;;8.30;99.90;;;;;;4195020;28;19982;-49
2022/03/16 08:20:01;;;;;;;;;;;8.30;99.90;;;;;;4195112;28;19928;-49
2022/03/16 08:22:03;;;;;;;;;;;8.40;99.90;;;;;;4195034;28;20367;-49
2022/03/16 08:24:05;;;;;;;;;;;8.30;99.90;;;;;;4195018;28;20377;-50
2022/03/16 08:26:07;;;;;;;;;;;8.40;99.90;;;;;;4194978;28;19985;-48
2022/03/16 08:28:09;;;;;;;;;;;8.40;99.90;;;;;;4193801;28;20344;-49
2022/03/16 08:30:11;;;;;;;;;;;8.40;99.90;;;;;;4195071;28;19972;-48
2022/03/16 08:32:13;;;;;;;;;;;8.50;99.90;;;;;;4194972;28;20597;-47
2022/03/16 08:34:15;;;;;;;;;;;8.60;99.90;;;;;;4195286;28;19941;-50
2022/03/16 08:36:16;;;;;;;;;;;8.70;99.90;;;;;;4194885;28;19924;-47
2022/03/16 08:38:19;;;;;;;;;;;8.80;99.90;;;;;;4195218;28;19934;-47
2022/03/16 08:40:21;;;;;;;;;;;8.60;99.90;;;;;;4193623;28;19955;-46
2022/03/16 08:42:23;;;;;;;;;;;8.80;99.90;;;;;;4195141;28;19928;-46
2022/03/16 08:44:25;;;;;;;;;;;8.90;99.90;;;;;;4195008;28;19925;-46
2022/03/16 08:46:27;;;;;;;;;;;8.90;99.90;;;;;;4195056;28;20256;-49
2022/03/16 08:48:29;;;;;;;;;;;8.90;99.90;;;;;;4194938;28;19928;-47
2022/03/16 08:50:31;;;;;;;;;;;8.90;99.90;;;;;;4194731;28;19931;-49
2022/03/16 08:52:33;;;;;;;;;;;9.10;99.90;;;;;;4194806;28;19925;-50
2022/03/16 08:54:34;;;;;;;;;;;9.10;99.90;;;;;;4195178;28;19936;-46
2022/03/16 08:56:36;;;;;;;;;;;9.20;99.90;;;;;;4194900;28;19940;-49
2022/03/16 08:58:38;;;;;;;;;;;9.30;99.90;;;;;;4195070;28;20266;-47
2022/03/16 09:00:41;;;;;;;;;;;9.20;99.90;;;;;;4194974;28;19924;-48
2022/03/16 09:02:43;;;;;;;;;;;9.40;99.90;;;;;;4194885;28;19924;-48
2022/03/16 09:04:45;;;;;;;;;;;9.50;99.90;;;;;;4194765;28;19924;-49
2022/03/16 09:06:48;;;;;;;;;;;9.50;99.90;;;;;;4194877;28;19924;-48
2022/03/16 09:08:50;;;;;;;;;;;9.40;99.90;;;;;;4195121;28;19924;-48
2022/03/16 09:10:55;;;;;;;;;;;9.40;99.90;;;;;;4195625;28;19951;-49
2022/03/16 09:12:56;;;;;;;;;;;9.20;99.90;;;;;;4198518;28;19924;-49
2022/03/16 09:14:58;;;;;;;;;;;9.40;99.90;;;;;;4198253;28;20395;-47
2022/03/16 09:17:00;;;;;;;;;;;9.50;99.90;;;;;;4198114;28;19935;-50
2022/03/16 09:19:02;;;;;;;;;;;9.50;99.90;;;;;;4197788;28;19971;-47
2022/03/16 09:21:04;;;;;;;;;;;9.60;99.90;;;;;;4197875;28;19924;-48
2022/03/16 09:23:08;;;;;;;;;;;9.60;99.90;;;;;;4198230;28;19924;-49
2022/03/16 09:25:10;;;;;;;;;;;9.60;99.90;;;;;;4197901;28;19928;-49
2022/03/16 09:27:12;;;;;;;;;;;9.60;99.90;;;;;;4197715;28;19968;-48
2022/03/16 09:29:16;;;;;;;;;;;9.60;99.90;;;;;;4197944;28;19928;-47
2022/03/16 09:31:18;;;;;;;;;;;9.50;99.90;;;;;;4197682;28;20443;-49
2022/03/16 09:33:21;;;;;;;;;;;9.50;99.90;;;;;;4197869;28;19932;-46
2022/03/16 09:35:24;;;;;;;;;;;9.50;99.90;;;;;;4196459;28;19928;-48
2022/03/16 09:37:26;;;;;;;;;;;9.50;99.90;;;;;;4197619;28;19928;-49
2022/03/16 09:39:28;;;;;;;;;;;9.60;99.90;;;;;;4197700;28;20019;-49
2022/03/16 09:41:30;;;;;;;;;;;9.60;99.90;;;;;;4197924;28;19932;-49
2022/03/16 09:43:38;;;;;;;;;;;9.60;99.90;;;;;;4203445;28;19924;-48
2022/03/16 09:45:46;;;;;;;;;;;9.60;99.90;;;;;;4197592;28;19933;-49
2022/03/16 09:47:49;;;;;;;;;;;9.60;99.90;;;;;;4193719;28;19994;-48
2022/03/16 09:49:54;;;;;;;;;;;9.60;99.90;;;;;;4197684;28;19935;-50
2022/03/16 09:51:56;;;;;;;;;;;9.80;99.90;;;;;;4197707;28;19978;-49
2022/03/16 09:53:59;;;;;;;;;;;10.00;99.90;;;;;;4197417;28;20486;-48
2022/03/16 09:56:01;;;;;;;;;;;10.00;99.90;;;;;;4196397;28;20011;-47
2022/03/16 09:58:04;;;;;;;;;;;10.00;99.90;;;;;;4197621;28;19928;-48
2022/03/16 10:00:06;;;;;;;;;;;10.10;99.90;;;;;;4197216;28;20377;-47
2022/03/16 10:02:11;;;;;;;;;;;10.10;99.90;;;;;;4197361;28;20577;-50
2022/03/16 10:04:26;;;;;;;;;;;10.30;99.90;;;;;;4197383;28;19928;-50
2022/03/16 10:06:29;;;;;;;;;;;10.30;99.90;;;;;;4197436;28;19928;-47
2022/03/16 10:08:32;;;;;;;;;;;10.50;99.90;;;;;;4197071;28;20440;-48
2022/03/16 10:13:14;;;;;;;;;;;10.50;99.90;;;;;;4196884;28;19925;-51
2022/03/16 10:15:18;;;;;;;;;;;10.60;99.90;;;;;;4197115;28;19986;-49
2022/03/16 10:19:44;;;;;;;;;;;10.90;99.90;;;;;;4190708;28;19935;-48
2022/03/16 10:22:04;;;;;;;;;;;10.60;99.90;;;;;;4195737;28;19928;-50
2022/03/16 10:24:06;;;;;;;;;;;10.60;99.90;;;;;;4196671;28;19928;-51
2022/03/16 10:26:14;;;;;;;;;;;10.60;99.90;;;;;;4197017;28;19928;-50
2022/03/16 10:28:16;;;;;;;;;;;10.60;99.90;;;;;;4197418;28;19928;-49
2022/03/16 10:30:20;;;;;;;;;;;10.70;99.90;;;;;;4196761;28;19924;-50
2022/03/16 10:32:22;;;;;;;;;;;10.60;99.90;;;;;;4197295;28;19960;-48
2022/03/16 10:34:24;;;;;;;;;;;10.70;99.90;;;;;;4196764;28;20011;-50
2022/03/16 10:36:27;;;;;;;;;;;10.80;99.90;;;;;;4197058;28;19928;-50
2022/03/16 10:38:30;;;;;;;;;;;10.70;99.90;;;;;;4197320;28;19924;-50
2022/03/16 10:40:32;;;;;;;;;;;10.80;99.90;;;;;;4196537;28;19979;-50
2022/03/16 10:47:35;;;;;;;;;;;11.00;99.90;;;;;;4196620;28;19924;-49
2022/03/16 10:49:38;;;;;;;;;;;11.10;99.90;;;;;;4194009;28;20415;-51
2022/03/16 10:51:41;;;;;;;;;;;11.10;99.90;;;;;;4195738;28;19951;-48
2022/03/16 10:54:00;;;;;;;;;;;10.90;99.90;;;;;;4188404;28;20389;-48
2022/03/16 10:56:02;;;;;;;;;;;11.10;99.90;;;;;;4194998;28;20228;-49
2022/03/16 10:58:05;;;;;;;;;;;11.10;99.90;;;;;;4211171;28;19970;-49
2022/03/16 11:00:08;;;;;;;;;;;11.30;99.90;;;;;;4196595;28;20435;-48
2022/03/16 11:02:12;;;;;;;;;;;11.30;99.90;;;;;;4195313;28;20324;-49
2022/03/16 11:04:14;;;;;;;;;;;11.20;99.90;;;;;;4192020;28;19938;-48
2022/03/16 11:06:20;;;;;;;;;;;11.10;99.90;;;;;;4194687;28;19925;-48
2022/03/16 11:08:26;;;;;;;;;;;11.00;99.90;;;;;;4186637;28;20324;-50
2022/03/16 11:10:28;;;;;;;;;;;11.10;99.90;;;;;;4195338;28;19932;-49
2022/03/16 11:14:52;;;;;;;;;;;11.20;99.90;;;;;;4185669;28;19924;-50
2022/03/16 11:16:54;;;;;;;;;;;11.40;99.90;;;;;;4192125;28;19974;-50
2022/03/16 11:19:04;;;;;;;;;;;11.40;99.90;;;;;;4191944;28;20432;-50
2022/03/16 11:21:09;;;;;;;;;;;11.30;99.90;;;;;;4195415;28;19964;-47
2022/03/16 11:25:48;;;;;;;;;;;11.40;99.90;;;;;;4194042;28;20364;-48
2022/03/16 11:27:52;;;;;;;;;;;11.60;99.90;;;;;;4195329;28;19962;-50
2022/03/16 11:30:06;;;;;;;;;;;11.60;99.90;;;;;;4192822;28;20023;-50
2022/03/16 11:32:13;;;;;;;;;;;11.80;99.90;;;;;;4190882;28;19947;-47
2022/03/16 11:34:21;;;;;;;;;;;11.70;99.90;;;;;;4190761;28;20359;-48
2022/03/16 11:36:27;;;;;;;;;;;11.50;99.90;;;;;;4194330;28;19983;-50
2022/03/16 11:38:30;;;;;;;;;;;11.40;99.90;;;;;;4195612;28;19978;-50
2022/03/16 11:40:34;;;;;;;;;;;11.60;99.90;;;;;;4195825;28;20357;-47
2022/03/16 11:42:37;;;;;;;;;;;11.50;99.90;;;;;;4190803;28;20019;-48
2022/03/16 11:44:42;;;;;;;;;;;11.50;99.90;;;;;;4195028;28;20396;-50
2022/03/16 11:46:46;;;;;;;;;;;11.40;99.90;;;;;;4194250;28;19924;-49
2022/03/16 11:48:54;;;;;;;;;;;11.40;99.90;;;;;;4191050;28;19928;-48
2022/03/16 11:51:08;;;;;;;;;;;11.40;99.90;;;;;;4195408;28;20399;-49
2022/03/16 11:53:14;;;;;;;;;;;11.60;99.90;;;;;;4185826;28;20252;-48
2022/03/16 11:55:36;;;;;;;;;;;11.50;99.90;;;;;;4195320;28;19977;-47
2022/03/16 11:57:54;;;;;;;;;;;11.30;99.90;;;;;;4195706;28;19928;-49
2022/03/16 11:59:59;;;;;;;;;;;11.20;99.90;;;;;;4193386;28;19994;-49
2022/03/16 12:02:09;;;;;;;;;;;11.30;99.90;;;;;;4195651;28;19924;-50
2022/03/16 12:04:12;;;;;;;;;;;11.50;99.90;;;;;;4195556;28;19925;-49
2022/03/16 12:06:19;;;;;;;;;;;11.50;99.90;;;;;;4195405;28;19998;-49
2022/03/16 12:08:24;;;;;;;;;;;11.50;99.90;;;;;;4194831;28;19932;-48
2022/03/16 12:10:26;;;;;;;;;;;11.40;99.90;;;;;;4194276;28;19955;-49
2022/03/16 12:12:51;;;;;;;;;;;11.70;99.90;;;;;;4195442;28;19924;-47
2022/03/16 12:15:11;;;;;;;;;;;11.80;99.90;;;;;;4194594;28;19928;-47
2022/03/16 12:17:14;;;;;;;;;;;12.00;99.90;;;;;;4194621;28;20022;-49
2022/03/16 12:19:27;;;;;;;;;;;11.70;99.90;;;;;;4195002;28;19924;-50
2022/03/16 12:21:30;;;;;;;;;;;11.80;99.90;;;;;;4195171;28;20374;-51